Startpagina
METAR-TAF:

METAR-TAF

Vliegvelden :

Honiara International Airport

Honiara, Guadalcanal, Salomonseilanden

breedte: 09-25S, lengte: 160-03E, hoogte: 8 m

Actueel weer

Dit bericht is 59 minuten geleden gemaakt, om 16:00 UTC
Wind 2 kt uit het zuidzuidwesten
Temperatuur 25°C
Vochtigheid 94%
Druk 1006 hPa
Zicht 10 km of meer
Weinig wolken op 1500 ft

METAR: AGGH 261600Z 20002KT 9999 FEW015 25/24 Q1006

Tijdstip: 03:59 (16:59 UTC)

Verwachting

Dit bericht is 5 uur en het 29 minuten geleden gemaakt, om 11:30 UTC
Verwachting geldig van 26 om 12 UTC tot 27 om 12 UTC
Wind 7 kt uit het zuidzuidwesten
Zicht: 1007 m
Weinig wolken op 1700 ft

TAF: AGGH 261130Z 2612/2712 20007KT 9999 FEW017 T 26 25 24 24 Q 1008 1006 1005 1007

Waarnemingen en weersverwachtingen van meer dan 4000 vliegvelden (METAR en TAF).

De beschikbare stations zijn de gele en rode punten op de kaart.

Ga met uw muis naar het station om de naam te zien.

Klik dan om waarnemingen en weersverwachtingen te zien.

kaart wijzigen: klik op de groene knoppen met een zwart kruis om in te zoomen, op de groene knop met een streepje om uit te zoomen of op de groene pijlen voor aangrenzende kaarten.


METAR-TAF: